青森空港の過去48時間の天気

青森空港 (Aomori)

現在時刻: 1/23 14:47 JST (1/23 05:47 UTC) 以下の時間は現地時間です。

過去48時間のMETAR気象情報
時間 風向 風速(m/s) 視程 気温(℃) 湿度(%) 気圧(hPa) 天気現象
23 14:30 南西 9 5,000m 1 93 993 弱いしゅう雪
23 14:18 南南西 8 800m 1 86 993 しゅう雪
23 14:09 6 1,200m 1 93 992 弱いしゅう雪
23 14:00 5 2,000m 1 93 992 弱いしゅう雪
23 13:43 5 800m 1 93 992 しゅう雪
23 13:37 6 1,200m 1 93 992 弱いしゅう雪
23 13:18 南南西 4 1,500m 1 93 992 弱いしゅう雪
23 13:00 西 5 1,000m 0 93 992 弱いしゅう雪
23 12:48 南西 5 1,000m 1 93 992 弱いしゅう雪
23 12:29 南南東 8 500m 1 86 992 しゅう雪
23 12:18 南南東 7 800m 1 80 992 しゅう雪
23 12:00 5 2,000m 3 70 992 弱いしゅう雪
23 11:00 南東 5 10km以上 4 56 994
23 10:00 南南東 4 10km以上 4 56 996
23 09:00 南東 5 10km以上 3 60 998
23 08:00 東南東 3 10km以上 -2 80 999
23 07:20 東南東 7 10km以上 2 64 1000
23 07:00 不定 2 10km以上 -2 80 1000
22 21:00 静穏 0 10km以上 -6 73 1012
22 20:00 不定 1 10km以上 -7 86 1013
22 19:00 不定 1 10km以上 -6 79 1014
22 18:00 不定 1 10km以上 -6 79 1015
22 17:00 北東 3 10km以上 -4 63 1015
22 16:00 北北東 2 10km以上 -5 68 1015
22 15:00 北東 2 10km以上 -4 58 1016
22 14:00 不定 1 10km以上 -4 58 1017
22 13:00 不定 1 10km以上 -4 54 1018
22 12:00 南南西 2 10km以上 -4 54 1019
22 11:00 4 10km以上 -4 54 1021
22 10:00 南南西 4 10km以上 -5 58 1021
22 09:00 南西 4 10km以上 -6 63 1021
22 08:00 4 10km以上 -7 62 1021
22 07:00 南南西 4 10km以上 -8 67 1021
RJSA 230530Z 22018KT 5000 R24/0900VP1800U -SHSN FEW002 SCT005 BKN010 01/M00 Q0993 RMK 1ST002 4ST005 6ST010 A2934 P/RR
RJSA 230518Z 20015KT 160V230 0800 R24/0900VP1800D SHSN FEW001 SCT002 BKN003 01/M01 Q0993 RMK 1ST001 3ST002 6ST003 A2933
RJSA 230509Z 19012KT 1200 R24/P1800N -SHSN FEW002 BKN005 BKN010 FEW015CB 01/M00 Q0992 RMK 1ST002 5ST005 7ST010 1CB015 A2932 CB 10KM SE MOV NE
RJSA 230500Z 17010KT 150V210 2000 R24/0900VP1800U -SHSN FEW002 BKN005 BKN010 FEW015CB 01/M00 Q0992
RJSA 230443Z 19010KT 0800 R24/0900VP1800D SHSN FEW002 BKN005 BKN010 01/M00 Q0992 RMK 1ST002 5ST005 7ST010 A2932
RJSA 230437Z 19011KT 1200 R24/1600VP1800D -SHSN FEW002 BKN006 BKN015 01/M00 Q0992 RMK 1ST002 5ST006 7CU015 A2932
RJSA 230418Z 20008KT 170V230 1500 R24/0900VP1800U -SHSN FEW002 SCT006 BKN010 01/M00 Q0992 RMK 1ST002 4ST006 7ST010 A2931
RJSA 230400Z 26010KT 1000 R24/0800V1500D -SHSN FEW001 BKN003 BKN007 00/M01 Q0992
RJSA 230348Z 22010KT 190V250 1000 R24/0800V1100N -SHSN FEW001 BKN003 BKN005 01/M00 Q0992 RMK 1ST001 5ST003 7ST005 A2932
RJSA 230329Z 15015G29KT 090V180 0500 R24/0750V1000N SHSN FEW001 BKN003 BKN005 01/M01 Q0992 RMK 1ST001 5ST003 7ST005 A2930
RJSA 230318Z 16013G24KT 120V200 0800 R24/1100VP1800D SHSN FEW001 SCT003 BKN005 01/M02 Q0992 RMK 1ST001 4ST003 7ST005 A2930
RJSA 230300Z 17010KT 130V210 2000 -SHSN FEW001 SCT005 BKN010 03/M02 Q0992
RJSA 230200Z 14009KT 100V190 9999 FEW010 SCT030 BKN060 04/M04 Q0994
RJSA 230100Z 16008KT 110V210 9999 FEW010 SCT030 BKN050 04/M04 Q0996
RJSA 230000Z 14010KT 100V170 9999 FEW010 SCT030 BKN060 03/M04 Q0998
RJSA 222300Z 11005KT 9999 FEW020 SCT040 BKN080 M02/M05 Q0999
RJSA 222220Z 12014KT 090V150 9999 FEW020 SCT040 BKN080 02/M04 Q1000 RMK 1CU020 3CU040 5AC080 A2953
RJSA 222200Z VRB03KT 9999 FEW020 SCT040 BKN080 M02/M05 Q1000
RJSA 221200Z 00000KT 9999 FEW030 SCT080 BKN100 M06/M10 Q1012
RJSA 221100Z VRB01KT 9999 FEW030 SCT080 BKN100 M07/M09 Q1013
RJSA 221000Z VRB01KT 9999 FEW030 SCT080 BKN100 M06/M09 Q1014
RJSA 220900Z VRB02KT 9999 FEW030 SCT080 BKN100 M06/M09 Q1015
RJSA 220800Z 04005KT 9999 FEW030 SCT080 BKN100 M04/M10 Q1015
RJSA 220700Z 02003KT 9999 FEW030 SCT080 BKN090 M05/M10 Q1015
RJSA 220600Z 04004KT 010V070 9999 FEW030 SCT050 BKN060 M04/M11 Q1016
RJSA 220500Z VRB02KT 9999 FEW030 SCT090 BKN110 M04/M11 Q1017
RJSA 220400Z VRB02KT 9999 FEW030 BKN120 BKN140 M04/M12 Q1018
RJSA 220300Z 20003KT 130V260 9999 FEW020 BKN035 BKN/// M04/M12 Q1019
RJSA 220200Z 18007KT 150V220 9999 FEW020 SCT030 BKN/// M04/M12 Q1021
RJSA 220100Z 20007KT 9999 FEW020 SCT035 BKN/// M05/M12 Q1021
RJSA 220000Z 22007KT 9999 FEW020 SCT035 BKN/// M06/M12 Q1021
RJSA 212300Z 19007KT 9999 FEW020 BKN035 M07/M13 Q1021
RJSA 212200Z 21007KT 9999 FEW020 SCT030 BKN040 M08/M13 Q1021